Time;durP1;ratioP1;P1;durP2;ratioP2;P2;SDS_P1;SDS_P2;PMS_P1;PMS_P2;Temp;Humidity;BMP_temperature;BMP_pressure;BME280_temperature;BME280_humidity;BME280_pressure;Samples;Min_cycle;Max_cycle;Signal;HPM_P1;HPM_P2
2021/08/28 00:00:51;;;;;;;0.40;0.20;;;;;;;16.40;100.00;100295.25;5052916;28;20513;-55
2021/08/28 00:03:19;;;;;;;0.40;0.20;;;;;;;16.42;100.00;100301.41;5052807;28;20951;-55
2021/08/28 00:05:46;;;;;;;0.40;0.20;;;;;;;16.40;100.00;100299.75;5052824;28;21365;-56
2021/08/28 00:08:13;;;;;;;0.40;0.20;;;;;;;16.41;100.00;100294.31;5052094;28;20475;-56
2021/08/28 00:10:41;;;;;;;0.40;0.20;;;;;;;16.43;100.00;100291.53;5052725;28;20530;-55
2021/08/28 00:13:09;;;;;;;0.40;0.20;;;;;;;16.40;100.00;100289.88;5051555;28;20522;-55
2021/08/28 00:15:36;;;;;;;0.40;0.20;;;;;;;16.59;100.00;100293.34;5052261;28;20501;-56
2021/08/28 00:18:03;;;;;;;0.40;0.20;;;;;;;16.50;100.00;100292.97;5052190;28;20475;-54
2021/08/28 00:20:30;;;;;;;0.70;0.70;;;;;;;16.69;100.00;100292.88;5052749;28;20538;-56
2021/08/28 00:22:57;;;;;;;1.93;1.83;;;;;;;16.65;100.00;100284.09;5052532;28;20557;-56
2021/08/28 00:25:24;;;;;;;0.93;0.90;;;;;;;16.58;100.00;100288.03;5052477;28;20454;-56
2021/08/28 00:27:51;;;;;;;0.40;0.20;;;;;;;16.60;100.00;100283.47;5051836;28;20501;-56
2021/08/28 00:30:18;;;;;;;1.17;1.17;;;;;;;16.72;100.00;100277.50;5052056;28;20447;-56
2021/08/28 00:32:45;;;;;;;0.40;0.20;;;;;;;17.06;100.00;100281.00;5052557;28;20486;-56
2021/08/28 00:35:12;;;;;;;0.43;0.37;;;;;;;16.87;100.00;100287.38;5052081;28;20493;-56
2021/08/28 00:37:39;;;;;;;0.40;0.20;;;;;;;16.78;100.00;100293.25;5052058;28;20471;-55
2021/08/28 00:40:07;;;;;;;0.50;0.40;;;;;;;16.63;100.00;100291.38;5052064;28;20490;-56
2021/08/28 00:42:48;;;;;;;0.40;0.20;;;;;;;16.48;100.00;100285.00;5052090;28;20497;-56
2021/08/28 00:45:15;;;;;;;0.40;0.20;;;;;;;16.39;100.00;100289.97;5034519;28;20513;-56
2021/08/28 00:47:52;;;;;;;0.43;0.43;;;;;;;16.49;100.00;100288.53;5052573;28;20487;-53
2021/08/28 00:50:19;;;;;;;0.40;0.20;;;;;;;16.40;100.00;100287.19;5051878;28;20474;-53
2021/08/28 00:52:46;;;;;;;0.40;0.20;;;;;;;16.60;100.00;100288.84;5051817;28;20486;-53
2021/08/28 00:55:13;;;;;;;0.60;0.60;;;;;;;16.48;100.00;100289.50;5052180;28;20486;-53
2021/08/28 00:57:40;;;;;;;0.40;0.40;;;;;;;16.82;100.00;100284.06;5051809;28;20506;-53
2021/08/28 01:00:07;;;;;;;0.40;0.20;;;;;;;16.79;100.00;100289.63;5051666;28;20459;-53
2021/08/28 01:02:37;;;;;;;0.40;0.20;;;;;;;16.63;100.00;100286.00;5051709;28;20455;-53
2021/08/28 01:05:14;;;;;;;1.60;0.80;;;;;;;16.70;100.00;100289.22;5034563;28;20489;-53
2021/08/28 01:07:57;;;;;;;21.07;1.13;;;;;;;16.71;100.00;100291.84;5051316;28;20482;-53
2021/08/28 01:10:29;;;;;;;0.40;0.20;;;;;;;16.43;100.00;100286.16;5051887;28;20455;-52
2021/08/28 01:13:00;;;;;;;0.40;0.20;;;;;;;16.56;100.00;100284.56;5051503;28;20897;-53
2021/08/28 01:15:27;;;;;;;0.40;0.40;;;;;;;16.34;100.00;100281.31;5047411;28;20458;-53
2021/08/28 01:17:56;;;;;;;0.40;0.20;;;;;;;16.13;100.00;100284.16;5051480;28;21006;-53
2021/08/28 01:20:36;;;;;;;0.80;0.80;;;;;;;15.96;100.00;100281.47;5047988;28;20537;-53
2021/08/28 01:23:05;;;;;;;0.60;0.60;;;;;;;16.09;100.00;100282.56;5051688;28;20482;-52
2021/08/28 01:25:33;;;;;;;0.40;0.20;;;;;;;16.41;100.00;100278.19;5051500;28;20474;-53
2021/08/28 01:28:21;;;;;;;0.50;0.50;;;;;;;15.99;100.00;100270.56;5054693;28;20520;-53
2021/08/28 01:30:48;;;;;;;0.40;0.30;;;;;;;15.88;100.00;100271.13;5044489;28;20486;-53
2021/08/28 01:33:16;;;;;;;0.40;0.20;;;;;;;15.88;100.00;100283.66;5055664;28;20835;-53
2021/08/28 01:35:45;;;;;;;0.40;0.33;;;;;;;15.84;100.00;100274.91;5055986;28;20450;-53
2021/08/28 01:38:12;;;;;;;0.40;0.20;;;;;;;15.78;100.00;100285.09;5055378;28;20478;-53
2021/08/28 01:40:41;;;;;;;0.40;0.20;;;;;;;15.81;100.00;100282.25;5055333;28;20482;-53
2021/08/28 01:43:08;;;;;;;0.90;0.87;;;;;;;15.63;100.00;100282.22;5055399;28;20532;-53
2021/08/28 01:45:36;;;;;;;1.30;1.03;;;;;;;15.40;100.00;100280.63;5055293;28;20483;-52
2021/08/28 01:48:04;;;;;;;0.30;0.20;;;;;;;15.09;100.00;100296.44;5037079;28;20531;-53
2021/08/28 01:50:31;;;;;;;3.30;1.80;;;;;;;15.01;100.00;100294.09;5055000;28;20940;-53
2021/08/28 01:52:58;;;;;;;3.43;0.77;;;;;;;15.03;100.00;100304.75;5055045;28;20565;-52
2021/08/28 01:55:25;;;;;;;0.40;0.20;;;;;;;15.17;100.00;100299.59;5037299;28;20523;-52
2021/08/28 01:57:53;;;;;;;0.40;0.40;;;;;;;15.00;100.00;100294.19;5055242;28;20479;-53
2021/08/28 02:00:20;;;;;;;0.63;0.57;;;;;;;15.03;100.00;100296.72;5055289;28;20707;-53
2021/08/28 02:02:47;;;;;;;0.70;0.70;;;;;;;14.99;100.00;100295.13;5055004;28;20459;-53
2021/08/28 02:05:14;;;;;;;0.40;0.20;;;;;;;14.96;100.00;100295.28;5054672;28;20462;-52
2021/08/28 02:08:05;;;;;;;0.40;0.30;;;;;;;14.69;100.00;100287.56;5054785;28;20499;-52
2021/08/28 02:10:41;;;;;;;1.00;1.00;;;;;;;14.65;100.00;100293.09;5055095;28;20482;-52
2021/08/28 02:13:25;;;;;;;0.40;0.20;;;;;;;14.38;100.00;100285.34;5055006;28;20470;-53
2021/08/28 02:15:57;;;;;;;0.40;0.20;;;;;;;14.45;100.00;100281.50;5050685;28;20474;-51
2021/08/28 02:18:32;;;;;;;0.43;0.37;;;;;;;14.64;100.00;100294.91;5054400;28;20478;-53
2021/08/28 02:21:01;;;;;;;0.40;0.20;;;;;;;14.70;100.00;100280.41;5054747;28;20943;-52
2021/08/28 02:23:53;;;;;;;0.40;0.20;;;;;;;14.59;100.00;100288.06;5054585;28;20482;-52
2021/08/28 02:26:24;;;;;;;0.40;0.20;;;;;;;14.50;100.00;100289.31;5054495;28;20474;-53
2021/08/28 02:28:56;;;;;;;0.40;0.20;;;;;;;14.94;100.00;100303.38;5050534;28;20482;-53
2021/08/28 02:31:28;;;;;;;1.20;1.07;;;;;;;14.69;100.00;100308.97;5054428;28;20494;-53
2021/08/28 02:33:57;;;;;;;0.40;0.20;;;;;;;14.91;100.00;100303.50;5054525;28;20513;-53
2021/08/28 02:36:23;;;;;;;0.40;0.40;;;;;;;14.74;100.00;100308.75;5054149;28;20489;-53
2021/08/28 02:38:52;;;;;;;0.40;0.20;;;;;;;14.87;100.00;100309.94;5052843;28;20509;-52
2021/08/28 02:41:21;;;;;;;0.40;0.30;;;;;;;15.05;100.00;100310.88;5054445;28;20510;-53
2021/08/28 02:43:50;;;;;;;0.53;0.53;;;;;;;14.97;100.00;100313.94;5054306;28;20459;-53
2021/08/28 02:46:18;;;;;;;2.20;2.10;;;;;;;14.84;100.00;100309.22;5053999;28;20509;-53
2021/08/28 02:48:46;;;;;;;1.17;0.63;;;;;;;14.81;100.00;100303.06;5053987;28;20495;-52
2021/08/28 02:51:14;;;;;;;1.93;0.77;;;;;;;14.62;100.00;100293.25;5054177;28;20501;-53
2021/08/28 02:53:45;;;;;;;0.50;0.37;;;;;;;14.65;100.00;100301.13;5053768;28;20573;-53
2021/08/28 02:56:14;;;;;;;1.60;0.83;;;;;;;14.65;100.00;100304.69;5060295;28;21008;-52
2021/08/28 02:58:44;;;;;;;1.03;1.03;;;;;;;14.68;100.00;100303.69;5053919;28;20532;-53
2021/08/28 03:01:12;;;;;;;0.40;0.20;;;;;;;14.66;100.00;100297.53;5053968;28;20490;-53
2021/08/28 03:03:41;;;;;;;0.40;0.20;;;;;;;14.55;100.00;100299.84;5054049;28;20454;-53
2021/08/28 03:06:09;;;;;;;0.40;0.30;;;;;;;14.61;100.00;100299.53;5053789;28;20549;-53
2021/08/28 03:08:37;;;;;;;0.40;0.30;;;;;;;14.58;100.00;100302.38;5035835;28;20534;-53
2021/08/28 03:11:04;;;;;;;0.37;0.20;;;;;;;14.41;100.00;100303.97;5054002;28;20487;-52
2021/08/28 03:13:31;;;;;;;0.40;0.20;;;;;;;14.41;100.00;100301.28;5053357;28;20486;-53
2021/08/28 03:15:59;;;;;;;0.90;0.90;;;;;;;14.46;100.00;100296.63;5053872;28;20482;-53
2021/08/28 03:18:28;;;;;;;0.40;0.20;;;;;;;14.19;100.00;100298.66;5047399;28;20983;-53
2021/08/28 03:20:57;;;;;;;0.40;0.30;;;;;;;13.89;100.00;100299.97;5053969;28;20588;-52
2021/08/28 03:23:28;;;;;;;0.50;0.50;;;;;;;14.15;100.00;100294.41;5053217;28;20980;-52
2021/08/28 03:25:56;;;;;;;0.40;0.27;;;;;;;14.21;100.00;100296.78;5053579;28;20478;-52
2021/08/28 03:28:23;;;;;;;0.70;0.67;;;;;;;14.35;100.00;100296.19;5053462;28;20510;-52
2021/08/28 03:30:51;;;;;;;0.40;0.20;;;;;;;14.38;100.00;100292.50;5053343;28;20486;-52
2021/08/28 03:33:20;;;;;;;0.60;0.50;;;;;;;14.19;100.00;100296.00;5052740;28;20552;-52
2021/08/28 03:35:49;;;;;;;0.40;0.30;;;;;;;14.07;100.00;100290.31;5053364;28;21005;-52
2021/08/28 03:38:17;;;;;;;0.40;0.20;;;;;;;14.20;100.00;100288.84;5053432;28;20471;-52
2021/08/28 03:40:45;;;;;;;0.40;0.20;;;;;;;14.31;100.00;100294.59;5053508;28;20525;-53
2021/08/28 03:43:12;;;;;;;0.80;0.80;;;;;;;14.30;100.00;100292.84;5035308;28;20510;-52
2021/08/28 03:45:39;;;;;;;0.37;0.20;;;;;;;14.32;100.00;100290.97;5053090;28;20483;-52
2021/08/28 03:48:07;;;;;;;0.40;0.20;;;;;;;14.35;100.00;100293.50;5052900;28;20497;-51
2021/08/28 03:50:34;;;;;;;0.40;0.30;;;;;;;14.15;100.00;100289.06;5035442;28;20459;-52
2021/08/28 03:53:02;;;;;;;0.40;0.20;;;;;;;14.09;100.00;100296.44;5052645;28;20578;-52
2021/08/28 03:55:29;;;;;;;0.40;0.30;;;;;;;14.06;100.00;100296.59;5061172;28;20532;-52
2021/08/28 03:57:56;;;;;;;0.40;0.40;;;;;;;14.22;100.00;100292.31;5052917;28;21022;-52
2021/08/28 04:00:23;;;;;;;0.40;0.30;;;;;;;14.28;100.00;100301.88;5052800;28;20462;-52
2021/08/28 04:02:50;;;;;;;0.40;0.20;;;;;;;14.29;100.00;100295.59;5052840;28;20826;-52
2021/08/28 04:05:17;;;;;;;0.40;0.30;;;;;;;14.38;100.00;100305.88;5052800;28;20447;-53
2021/08/28 04:07:44;;;;;;;0.60;0.60;;;;;;;14.39;100.00;100303.16;5052739;28;20536;-53
2021/08/28 04:10:11;;;;;;;0.40;0.20;;;;;;;14.29;100.00;100301.81;5052680;28;20451;-53
2021/08/28 04:12:38;;;;;;;0.40;0.20;;;;;;;14.20;100.00;100305.75;5052764;28;20514;-53
2021/08/28 04:15:06;;;;;;;0.40;0.27;;;;;;;14.16;100.00;100303.28;5052370;28;20494;-53
2021/08/28 04:17:33;;;;;;;0.40;0.30;;;;;;;14.32;100.00;100307.03;5052796;28;20478;-53
2021/08/28 04:20:00;;;;;;;0.50;0.50;;;;;;;14.19;100.00;100297.78;5052384;28;20519;-52
2021/08/28 04:22:27;;;;;;;0.57;0.57;;;;;;;14.17;100.00;100300.53;5052596;28;20469;-52
2021/08/28 04:24:54;;;;;;;0.30;0.20;;;;;;;14.27;100.00;100310.84;5052514;28;20455;-53
2021/08/28 04:27:21;;;;;;;0.40;0.20;;;;;;;14.25;100.00;100300.19;5052133;28;20474;-52
2021/08/28 04:29:48;;;;;;;0.43;0.40;;;;;;;14.46;100.00;100315.34;5052459;28;20454;-52
2021/08/28 04:32:14;;;;;;;0.30;0.20;;;;;;;14.36;100.00;100311.28;5052154;28;20455;-53
2021/08/28 04:34:41;;;;;;;0.73;0.73;;;;;;;14.43;100.00;100314.59;5052232;28;20868;-53
2021/08/28 04:37:08;;;;;;;0.30;0.20;;;;;;;14.39;100.00;100316.53;5051949;28;20506;-52
2021/08/28 04:39:35;;;;;;;0.40;0.20;;;;;;;14.46;100.00;100318.03;5052130;28;20947;-52
2021/08/28 04:42:02;;;;;;;0.40;0.20;;;;;;;14.29;100.00;100317.88;5052324;28;20834;-53
2021/08/28 04:44:29;;;;;;;0.50;0.50;;;;;;;14.33;100.00;100315.91;5052228;28;20578;-52
2021/08/28 04:46:56;;;;;;;0.40;0.20;;;;;;;14.30;100.00;100318.72;5051769;28;20475;-52
2021/08/28 04:49:23;;;;;;;0.30;0.20;;;;;;;14.36;100.00;100319.31;5051913;28;20466;-53
2021/08/28 04:51:50;;;;;;;0.50;0.33;;;;;;;14.59;100.00;100322.81;5052128;28;20489;-53
2021/08/28 04:54:17;;;;;;;0.40;0.20;;;;;;;14.64;100.00;100321.66;5053229;28;20548;-53
2021/08/28 04:56:44;;;;;;;0.40;0.20;;;;;;;14.67;100.00;100323.38;5057145;28;20474;-52
2021/08/28 04:59:11;;;;;;;0.40;0.20;;;;;;;14.63;100.00;100319.94;5051134;28;20463;-53
2021/08/28 05:01:38;;;;;;;0.30;0.20;;;;;;;14.64;100.00;100326.16;5050862;28;20459;-53
2021/08/28 05:04:05;;;;;;;0.40;0.20;;;;;;;14.70;100.00;100321.41;5051235;28;20960;-52
2021/08/28 05:06:32;;;;;;;0.40;0.20;;;;;;;14.74;100.00;100322.13;5045626;28;20483;-53
2021/08/28 05:09:01;;;;;;;0.40;0.30;;;;;;;14.77;100.00;100322.84;5050611;28;20834;-53
2021/08/28 05:11:29;;;;;;;0.60;0.60;;;;;;;14.72;100.00;100324.88;5051887;28;20483;-53
2021/08/28 05:13:56;;;;;;;0.30;0.20;;;;;;;14.93;100.00;100330.19;5050998;28;20489;-53
2021/08/28 05:16:23;;;;;;;0.30;0.20;;;;;;;14.95;100.00;100328.34;5051706;28;20442;-53
2021/08/28 05:18:50;;;;;;;0.30;0.20;;;;;;;14.88;100.00;100333.09;5051215;28;21233;-53
2021/08/28 05:21:17;;;;;;;0.40;0.30;;;;;;;14.94;100.00;100332.81;5051451;28;20490;-53
2021/08/28 05:23:44;;;;;;;0.40;0.30;;;;;;;14.92;100.00;100336.47;5050792;28;20479;-53
2021/08/28 05:26:11;;;;;;;0.30;0.20;;;;;;;15.03;100.00;100348.44;5051324;28;20948;-53
2021/08/28 05:28:38;;;;;;;0.50;0.40;;;;;;;15.02;100.00;100333.31;5050790;28;20887;-53
2021/08/28 05:31:05;;;;;;;0.40;0.20;;;;;;;15.22;100.00;100342.25;5050934;28;20489;-53
2021/08/28 05:33:32;;;;;;;0.53;0.53;;;;;;;15.20;100.00;100339.63;5050942;28;20518;-53
2021/08/28 05:35:59;;;;;;;0.40;0.20;;;;;;;15.15;100.00;100341.66;5050821;28;20459;-53
2021/08/28 05:38:25;;;;;;;0.43;0.43;;;;;;;15.21;100.00;100335.13;5033599;28;20470;-53
2021/08/28 05:40:52;;;;;;;1.50;1.50;;;;;;;15.08;100.00;100341.09;5051482;28;21017;-53
2021/08/28 05:43:19;;;;;;;0.30;0.20;;;;;;;15.23;100.00;100342.19;5033546;28;20469;-52
2021/08/28 05:45:46;;;;;;;0.80;0.80;;;;;;;15.21;100.00;100345.84;5051224;28;20484;-53
2021/08/28 05:48:13;;;;;;;0.60;0.57;;;;;;;15.28;100.00;100349.97;5050929;28;20918;-53
2021/08/28 05:50:40;;;;;;;5.13;1.80;;;;;;;15.27;100.00;100357.16;5050895;28;20451;-53
2021/08/28 05:53:07;;;;;;;0.83;0.83;;;;;;;15.31;100.00;100348.03;5051259;28;20525;-53
2021/08/28 05:55:34;;;;;;;0.40;0.20;;;;;;;15.41;100.00;100345.78;5051020;28;20512;-53
2021/08/28 05:58:01;;;;;;;0.77;0.77;;;;;;;15.57;100.00;100343.25;5051010;28;20504;-53
2021/08/28 06:00:28;;;;;;;1.20;1.07;;;;;;;15.52;100.00;100338.13;5051106;28;20508;-53
2021/08/28 06:02:54;;;;;;;0.93;0.93;;;;;;;15.61;100.00;100337.69;5050695;28;20976;-53
2021/08/28 06:05:22;;;;;;;0.30;0.20;;;;;;;15.63;100.00;100343.00;5049897;28;20498;-54
2021/08/28 06:07:48;;;;;;;0.40;0.40;;;;;;;15.72;100.00;100331.81;5050231;28;20509;-53
2021/08/28 06:10:16;;;;;;;0.37;0.20;;;;;;;15.79;100.00;100335.94;5049697;28;20944;-52
2021/08/28 06:12:43;;;;;;;1.70;1.30;;;;;;;15.88;100.00;100345.31;5039181;28;20470;-52
2021/08/28 06:15:10;;;;;;;0.40;0.33;;;;;;;15.77;100.00;100340.50;5055284;28;20451;-53
2021/08/28 06:17:37;;;;;;;0.40;0.33;;;;;;;15.71;100.00;100340.78;5055060;28;20498;-53
2021/08/28 06:20:04;;;;;;;0.53;0.47;;;;;;;15.65;100.00;100339.28;5054838;28;20493;-53
2021/08/28 06:22:31;;;;;;;0.40;0.40;;;;;;;15.64;100.00;100342.03;5055276;28;20478;-52
2021/08/28 06:24:58;;;;;;;0.73;0.73;;;;;;;15.64;100.00;100336.69;5054931;28;20447;-52
2021/08/28 06:27:25;;;;;;;6.87;2.60;;;;;;;15.83;100.00;100336.63;5054848;28;20474;-56
2021/08/28 06:29:52;;;;;;;0.40;0.20;;;;;;;15.72;100.00;100338.97;5036911;28;20454;-54
2021/08/28 06:32:19;;;;;;;0.37;0.30;;;;;;;15.70;100.00;100339.06;5054755;28;20482;-54
2021/08/28 06:34:46;;;;;;;4.80;1.50;;;;;;;15.70;100.00;100339.91;5055198;28;20567;-54
2021/08/28 06:37:13;;;;;;;0.40;0.30;;;;;;;15.93;100.00;100343.28;5054666;28;20996;-54
2021/08/28 06:39:40;;;;;;;0.40;0.30;;;;;;;16.34;100.00;100345.69;5054588;28;20887;-54
2021/08/28 06:42:07;;;;;;;1.90;1.67;;;;;;;16.30;100.00;100344.97;5054367;28;20493;-53
2021/08/28 06:44:34;;;;;;;0.40;0.20;;;;;;;16.05;100.00;100350.72;5054427;28;20948;-52
2021/08/28 06:47:01;;;;;;;0.40;0.20;;;;;;;16.02;100.00;100337.44;5054521;28;20485;-54
2021/08/28 06:49:28;;;;;;;0.67;0.67;;;;;;;16.11;100.00;100339.69;5054821;28;20454;-56
2021/08/28 06:51:55;;;;;;;0.40;0.30;;;;;;;16.17;100.00;100336.69;5054344;28;20997;-58
2021/08/28 06:54:22;;;;;;;1.40;1.40;;;;;;;16.34;100.00;100345.69;5057792;28;20544;-55
2021/08/28 06:56:49;;;;;;;6.03;2.67;;;;;;;16.41;100.00;100344.41;5064278;28;20467;-55
2021/08/28 06:59:16;;;;;;;0.40;0.20;;;;;;;16.28;100.00;100350.41;5054932;28;20497;-53
2021/08/28 07:01:43;;;;;;;2.13;1.97;;;;;;;16.43;100.00;100354.13;5055956;28;20490;-57
2021/08/28 07:04:10;;;;;;;0.40;0.20;;;;;;;16.34;100.00;100346.56;5054023;28;20474;-58
2021/08/28 07:06:37;;;;;;;0.40;0.20;;;;;;;16.41;100.00;100350.66;5053852;28;20482;-58
2021/08/28 07:09:04;;;;;;;0.40;0.20;;;;;;;16.43;100.00;100346.06;5054058;28;20455;-58
2021/08/28 07:11:31;;;;;;;1.43;0.83;;;;;;;16.41;100.00;100349.78;5054307;28;20447;-58
2021/08/28 07:13:58;;;;;;;0.60;0.60;;;;;;;16.47;100.00;100339.63;5053681;28;20490;-58
2021/08/28 07:16:26;;;;;;;2.70;2.33;;;;;;;16.62;100.00;100343.31;5053855;28;20454;-58
2021/08/28 07:18:53;;;;;;;0.40;0.23;;;;;;;16.87;100.00;100345.59;5053927;28;20867;-58
2021/08/28 07:21:20;;;;;;;0.63;0.63;;;;;;;17.07;100.00;100344.50;5054105;28;20474;-58
2021/08/28 07:23:47;;;;;;;0.50;0.50;;;;;;;17.19;100.00;100349.22;5053430;28;20478;-58
2021/08/28 07:26:16;;;;;;;0.40;0.20;;;;;;;17.09;100.00;100339.91;5053448;28;20509;-58
2021/08/28 07:28:43;;;;;;;0.40;0.20;;;;;;;17.00;100.00;100335.94;5053796;28;20462;-57
2021/08/28 07:31:11;;;;;;;0.60;0.60;;;;;;;17.04;100.00;100336.63;5053824;28;20480;-58
2021/08/28 07:33:38;;;;;;;0.40;0.30;;;;;;;16.95;100.00;100334.44;5053238;28;20548;-58
2021/08/28 07:36:05;;;;;;;0.50;0.50;;;;;;;17.22;100.00;100335.59;5053677;28;20496;-58
2021/08/28 07:38:32;;;;;;;0.40;0.20;;;;;;;17.12;100.00;100337.91;5053576;28;20540;-58
2021/08/28 07:40:59;;;;;;;0.40;0.27;;;;;;;17.08;100.00;100325.63;5053524;28;20890;-58
2021/08/28 07:43:26;;;;;;;0.77;0.77;;;;;;;17.07;100.00;100339.13;5053223;28;20443;-58
2021/08/28 07:45:53;;;;;;;0.33;0.20;;;;;;;16.94;100.00;100335.38;5035494;28;20454;-58
2021/08/28 07:48:20;;;;;;;0.40;0.20;;;;;;;17.09;100.00;100339.91;5053067;28;20529;-58
2021/08/28 07:50:47;;;;;;;0.53;0.50;;;;;;;16.93;100.00;100333.66;5053469;28;20455;-58
2021/08/28 07:53:14;;;;;;;0.40;0.20;;;;;;;17.39;100.00;100342.72;5053247;28;20451;-58
2021/08/28 07:55:41;;;;;;;0.40;0.20;;;;;;;17.28;100.00;100342.47;5066633;28;20504;-58
2021/08/28 07:58:08;;;;;;;0.40;0.20;;;;;;;17.05;100.00;100344.59;5053122;28;20506;-58
2021/08/28 08:00:35;;;;;;;1.07;1.07;;;;;;;17.28;100.00;100337.09;5053008;28;20458;-58
2021/08/28 08:03:02;;;;;;;0.40;0.30;;;;;;;17.21;100.00;100343.75;5053201;28;20549;-58
2021/08/28 08:05:29;;;;;;;0.40;0.20;;;;;;;16.98;100.00;100342.31;5052960;28;20443;-58
2021/08/28 08:07:56;;;;;;;0.73;0.73;;;;;;;17.38;100.00;100344.53;5052906;28;20889;-58
2021/08/28 08:10:23;;;;;;;0.50;0.50;;;;;;;17.54;100.00;100351.75;5053302;28;20455;-58
2021/08/28 08:12:50;;;;;;;0.40;0.20;;;;;;;17.26;100.00;100355.09;5052659;28;20508;-58
2021/08/28 08:15:17;;;;;;;0.60;0.60;;;;;;;17.15;100.00;100350.34;5052716;28;20540;-58
2021/08/28 08:17:44;;;;;;;0.60;0.60;;;;;;;17.16;100.00;100346.69;5052827;28;20479;-58
2021/08/28 08:20:12;;;;;;;0.60;0.57;;;;;;;17.15;100.00;100344.97;5035032;28;20451;-57
2021/08/28 08:22:39;;;;;;;2.00;0.97;;;;;;;17.29;100.00;100344.22;5052424;28;20482;-56
2021/08/28 08:25:07;;;;;;;1.20;0.73;;;;;;;17.26;100.00;100341.66;5052546;28;20447;-57
2021/08/28 08:27:34;;;;;;;6.53;2.53;;;;;;;17.36;100.00;100343.75;5052853;28;20494;-57
2021/08/28 08:30:01;;;;;;;0.40;0.20;;;;;;;17.56;100.00;100349.84;5052451;28;20454;-57
2021/08/28 08:32:27;;;;;;;2.00;2.00;;;;;;;17.55;100.00;100350.81;5052802;28;20500;-57
2021/08/28 08:34:54;;;;;;;0.40;0.20;;;;;;;17.55;100.00;100357.06;5052574;28;20556;-56
2021/08/28 08:37:21;;;;;;;0.40;0.20;;;;;;;17.67;100.00;100359.03;5052219;28;20505;-57
2021/08/28 08:39:48;;;;;;;0.40;0.20;;;;;;;17.52;100.00;100362.59;5052257;28;20497;-57
2021/08/28 08:42:18;;;;;;;0.50;0.40;;;;;;;17.38;100.00;100349.91;5052426;28;20508;-57
2021/08/28 08:44:47;;;;;;;0.67;0.67;;;;;;;17.94;100.00;100356.59;5052274;28;20849;-57
2021/08/28 08:47:15;;;;;;;0.50;0.30;;;;;;;18.12;100.00;100353.81;5052130;28;20979;-57
2021/08/28 08:49:43;;;;;;;0.50;0.30;;;;;;;17.95;100.00;100355.66;5052268;28;20443;-57
2021/08/28 08:52:11;;;;;;;0.40;0.20;;;;;;;18.03;100.00;100357.91;5052349;28;20455;-57
2021/08/28 08:54:39;;;;;;;0.40;0.30;;;;;;;17.95;100.00;100355.66;5057450;28;20513;-57
2021/08/28 08:57:07;;;;;;;0.40;0.20;;;;;;;17.53;100.00;100356.25;5059396;28;20478;-57
2021/08/28 08:59:34;;;;;;;0.40;0.20;;;;;;;17.80;100.00;100359.22;5052275;28;20901;-57
2021/08/28 09:02:02;;;;;;;2.63;1.20;;;;;;;17.93;100.00;100354.88;5051969;28;21021;-57
2021/08/28 09:04:29;;;;;;;0.40;0.30;;;;;;;17.82;100.00;100351.97;5034357;28;20530;-57
2021/08/28 09:06:56;;;;;;;0.40;0.20;;;;;;;18.05;100.00;100351.47;5052035;28;20538;-56
2021/08/28 09:09:24;;;;;;;0.50;0.40;;;;;;;18.01;100.00;100360.69;5052099;28;20455;-57
2021/08/28 09:12:03;;;;;;;1.60;1.53;;;;;;;18.29;100.00;100359.94;5052037;28;20796;-58
2021/08/28 09:14:30;;;;;;;0.40;0.20;;;;;;;18.24;100.00;100356.66;5051888;28;20852;-58
2021/08/28 09:17:13;;;;;;;0.40;0.20;;;;;;;18.11;100.00;100365.53;5051565;28;20467;-57
2021/08/28 09:19:42;;;;;;;0.40;0.30;;;;;;;18.23;100.00;100363.00;5051707;28;20453;-58
2021/08/28 09:22:20;;;;;;;1.57;0.50;;;;;;;18.31;100.00;100357.16;5051804;28;20819;-58
2021/08/28 09:24:55;;;;;;;0.40;0.20;;;;;;;18.18;100.00;100357.00;5051847;28;20474;-58
2021/08/28 09:27:36;;;;;;;0.40;0.20;;;;;;;18.45;100.00;100367.09;5051512;28;20467;-58
2021/08/28 09:30:30;;;;;;;0.40;0.20;;;;;;;18.11;100.00;100374.47;5051388;28;20446;-58
2021/08/28 09:33:00;;;;;;;0.40;0.20;;;;;;;18.26;100.00;100364.66;5033989;28;20454;-57
2021/08/28 09:35:30;;;;;;;0.40;0.20;;;;;;;18.12;100.00;100370.84;5051428;28;21000;-58
2021/08/28 09:38:03;;;;;;;0.60;0.40;;;;;;;18.27;100.00;100374.44;5051080;28;21003;-58
2021/08/28 09:40:35;;;;;;;0.50;0.50;;;;;;;17.89;100.00;100366.78;5051526;28;20467;-58
2021/08/28 09:43:12;;;;;;;0.40;0.20;;;;;;;17.80;100.00;100361.06;5051613;28;20454;-58
2021/08/28 09:45:39;;;;;;;0.60;0.50;;;;;;;17.67;100.00;100359.03;5051615;28;20443;-57
2021/08/28 09:48:08;;;;;;;0.40;0.20;;;;;;;17.94;100.00;100362.00;5053015;28;20841;-58
2021/08/28 09:50:38;;;;;;;0.50;0.43;;;;;;;17.93;100.00;100362.94;5055485;28;20529;-58
2021/08/28 09:53:08;;;;;;;0.40;0.20;;;;;;;17.81;100.00;100360.97;5055009;28;20451;-58
2021/08/28 09:55:38;;;;;;;0.40;0.20;;;;;;;17.82;100.00;100368.09;5068601;28;20554;-58
2021/08/28 09:58:07;;;;;;;0.40;0.20;;;;;;;17.72;100.00;100364.19;5042252;28;20449;-58
2021/08/28 10:00:42;;;;;;;0.40;0.20;;;;;;;17.70;100.00;100366.13;5055212;28;21009;-58
2021/08/28 10:03:11;;;;;;;1.07;0.70;;;;;;;17.88;100.00;100364.19;5043901;28;20443;-58
2021/08/28 10:05:39;;;;;;;0.40;0.20;;;;;;;17.95;100.00;100362.84;5055395;28;20827;-57
2021/08/28 10:08:07;;;;;;;0.40;0.20;;;;;;;18.04;100.00;100368.56;5054886;28;20540;-58
2021/08/28 10:10:37;;;;;;;0.40;0.20;;;;;;;18.09;100.00;100370.13;5037489;28;20527;-58
2021/08/28 10:13:24;;;;;;;0.40;0.20;;;;;;;17.90;100.00;100360.44;5055229;28;20628;-54
2021/08/28 10:15:51;;;;;;;0.40;0.20;;;;;;;17.79;100.00;100356.63;5055080;28;20518;-54
2021/08/28 10:18:19;;;;;;;0.53;0.53;;;;;;;18.21;100.00;100359.50;5054859;28;20539;-55
2021/08/28 10:20:47;;;;;;;0.73;0.73;;;;;;;17.91;100.00;100366.69;5055090;28;20508;-55
2021/08/28 10:23:18;;;;;;;0.40;0.30;;;;;;;18.04;100.00;100362.34;5054918;28;20506;-55
2021/08/28 10:25:47;;;;;;;0.50;0.47;;;;;;;18.06;100.00;100358.59;5037175;28;20443;-54
2021/08/28 10:28:15;;;;;;;0.40;0.30;;;;;;;18.01;100.00;100362.53;5054509;28;20528;-54
2021/08/28 10:30:42;;;;;;;0.40;0.20;;;;;;;18.01;100.00;100352.63;5054763;28;20557;-54
2021/08/28 10:33:10;;;;;;;0.40;0.20;;;;;;;18.24;100.00;100345.91;5054637;28;20450;-54
2021/08/28 10:35:38;;;;;;;0.33;0.20;;;;;;;18.21;100.00;100356.81;5054930;28;20610;-54
2021/08/28 10:38:05;;;;;;;0.40;0.30;;;;;;;18.17;100.00;100349.03;5036766;28;20492;-54
2021/08/28 10:40:33;;;;;;;0.40;0.20;;;;;;;18.44;100.00;100354.59;5054490;28;20449;-54
2021/08/28 10:43:05;;;;;;;0.40;0.20;;;;;;;18.24;99.35;100345.03;5054852;28;20445;-54
2021/08/28 10:45:34;;;;;;;0.67;0.67;;;;;;;18.21;100.00;100353.25;5054487;28;20473;-54
2021/08/28 10:48:05;;;;;;;0.40;0.20;;;;;;;18.17;100.00;100357.09;5054378;28;20532;-54
2021/08/28 10:50:38;;;;;;;0.60;0.60;;;;;;;17.88;100.00;100350.72;5054214;28;20429;-54
2021/08/28 10:53:06;;;;;;;0.40;0.20;;;;;;;18.30;100.00;100345.53;5054651;28;20517;-54
2021/08/28 10:55:42;;;;;;;0.40;0.20;;;;;;;18.10;100.00;100348.53;5067604;28;20510;-54
2021/08/28 10:58:24;;;;;;;0.50;0.40;;;;;;;18.29;97.94;100353.69;5042048;28;20478;-54
2021/08/28 11:00:53;;;;;;;1.63;1.63;;;;;;;18.38;98.48;100346.91;5053165;28;20455;-54
2021/08/28 11:03:31;;;;;;;0.40;0.20;;;;;;;18.20;99.08;100357.78;5053884;28;20447;-54
2021/08/28 11:06:11;;;;;;;1.70;0.77;;;;;;;18.06;100.00;100355.91;5053367;28;20951;-54
2021/08/28 11:08:46;;;;;;;0.50;0.40;;;;;;;18.09;100.00;100354.84;5036630;28;20536;-54
2021/08/28 11:11:19;;;;;;;0.50;0.47;;;;;;;18.21;100.00;100359.50;5024498;28;20453;-53
2021/08/28 11:14:01;;;;;;;0.40;0.20;;;;;;;18.05;99.72;100361.38;5053916;28;20501;-54
2021/08/28 11:16:52;;;;;;;0.40;0.30;;;;;;;18.33;98.82;100355.22;5053807;28;20802;-53
2021/08/28 11:19:24;;;;;;;0.40;0.20;;;;;;;18.69;97.96;100359.41;5044279;28;20491;-54
2021/08/28 11:21:52;;;;;;;0.40;0.20;;;;;;;18.47;98.22;100354.41;5036400;28;20447;-55
2021/08/28 11:24:25;;;;;;;0.40;0.20;;;;;;;18.96;97.17;100349.63;5054204;28;20850;-54